Time;durP1;ratioP1;P1;durP2;ratioP2;P2;SDS_P1;SDS_P2;PMS_P1;PMS_P2;Temp;Humidity;BMP_temperature;BMP_pressure;BME280_temperature;BME280_humidity;BME280_pressure;Samples;Min_cycle;Max_cycle;Signal;HPM_P1;HPM_P2
2022/05/11 05:37:34;;;;;;;11.90;7.80;;;;;;;;;;5335274;23;20055;-79
2022/05/11 05:40:01;;;;;;;8.85;7.38;;;;;;;;;;4958119;29;20511;-79
2022/05/11 05:42:28;;;;;;;10.27;7.57;;;;;;;;;;4958001;29;20024;-79
2022/05/11 05:44:54;;;;;;;11.43;7.63;;;;;;;;;;4957973;28;20035;-80
2022/05/11 05:47:21;;;;;;;8.50;7.47;;;;;;;;;;4958208;28;20034;-80
2022/05/11 05:49:46;;;;;;;10.82;7.35;;;;;;;;;;4957876;29;20432;-81
2022/05/11 05:52:21;;;;;;;10.15;8.13;;;;;;;;;;4957962;29;20074;-81
2022/05/11 05:54:47;;;;;;;10.00;7.70;;;;;;;;;;4957983;29;20070;-85
2022/05/11 10:27:51;;;;;;;8.95;7.70;;;;;;;;;;5272547;23;20137;-81
2022/05/11 10:30:43;;;;;;;11.63;8.38;;;;;;;;;;4959262;28;20121;-81
2022/05/11 10:33:17;;;;;;;12.85;9.48;;;;;;;;;;4976526;28;20023;-80
2022/05/11 10:36:13;;;;;;;9.88;8.63;;;;;;;;;;4976292;28;20030;-81
2022/05/11 10:39:05;;;;;;;10.38;9.20;;;;;;;;;;4976508;28;20385;-81
2022/05/11 10:41:51;;;;;;;15.98;10.63;;;;;;;;;;4959026;28;20030;-80
2022/05/11 10:44:47;;;;;;;17.38;11.50;;;;;;;;;;4976254;28;20035;-79
2022/05/11 10:47:26;;;;;;;13.80;11.05;;;;;;;;;;4976182;28;20098;-80
2022/05/11 10:50:22;;;;;;;14.07;11.70;;;;;;;;;;4976258;28;20106;-81
2022/05/11 10:52:53;;;;;;;14.02;10.27;;;;;;;;;;4975669;28;20052;-79
2022/05/11 10:55:26;;;;;;;14.75;10.60;;;;;;;;;;4975973;28;20421;-79
2022/05/11 10:58:07;;;;;;;12.88;11.55;;;;;;;;;;4976247;28;20038;-82
2022/05/11 11:00:39;;;;;;;13.88;10.35;;;;;;;;;;4975895;28;20034;-81
2022/05/11 11:03:20;;;;;;;15.85;10.52;;;;;;;;;;4958150;28;20022;-82
2022/05/11 11:09:25;;;;;;;11.02;8.40;;;;;;;;;;4955285;28;20082;-81
2022/05/11 11:12:18;;;;;;;12.18;10.18;;;;;;;;;;4975752;28;20030;-81
2022/05/11 11:14:50;;;;;;;12.00;9.63;;;;;;;;;;4975644;28;20027;-81
2022/05/11 11:17:20;;;;;;;16.65;10.02;;;;;;;;;;4958525;28;20367;-81
2022/05/11 11:19:55;;;;;;;14.13;10.85;;;;;;;;;;4975567;28;20141;-81
2022/05/11 11:22:21;;;;;;;14.02;9.95;;;;;;;;;;4975515;28;20034;-81
2022/05/11 11:25:14;;;;;;;14.95;10.48;;;;;;;;;;4975568;28;20378;-80
2022/05/11 11:28:02;;;;;;;14.25;9.90;;;;;;;;;;4975257;28;20109;-80
2022/05/11 11:30:27;;;;;;;13.70;9.35;;;;;;;;;;4975381;28;20027;-80
2022/05/11 11:33:11;;;;;;;12.55;10.10;;;;;;;;;;4975832;28;20085;-81
2022/05/11 11:35:53;;;;;;;10.98;9.07;;;;;;;;;;4975177;28;20044;-81
2022/05/11 11:38:30;;;;;;;13.77;9.80;;;;;;;;;;4975419;28;20069;-82
2022/05/11 11:41:12;;;;;;;14.23;9.68;;;;;;;;;;4958059;28;20058;-81
2022/05/11 11:44:20;;;;;;;13.52;9.27;;;;;;;;;;4975331;28;20023;-80
2022/05/11 11:46:46;;;;;;;10.88;8.95;;;;;;;;;;4878473;29;20115;-80
2022/05/11 17:39:11;;;;;;;6.40;5.50;;;;;;;;;;4914952;29;20091;-81
2022/05/11 17:41:37;;;;;;;7.35;4.90;;;;;;;;;;4919977;29;20075;-82
2022/05/11 17:44:03;;;;;;;9.20;5.30;;;;;;;;;;4919787;29;20107;-82
2022/05/11 17:46:29;;;;;;;7.88;4.82;;;;;;;;;;4935796;29;20470;-82
2022/05/11 17:48:54;;;;;;;8.35;6.47;;;;;;;;;;4938735;29;20124;-82
2022/05/11 17:51:20;;;;;;;6.07;5.10;;;;;;;;;;4939076;29;20028;-80
2022/05/11 17:53:45;;;;;;;8.60;5.10;;;;;;;;;;4939033;29;20036;-82
2022/05/11 17:56:11;;;;;;;6.82;4.70;;;;;;;;;;4938536;29;20034;-82
2022/05/11 17:58:37;;;;;;;6.70;4.95;;;;;;;;;;4938563;29;20035;-80
2022/05/11 18:01:03;;;;;;;8.48;5.13;;;;;;;;;;4938743;29;20034;-81
2022/05/11 18:03:28;;;;;;;8.15;5.03;;;;;;;;;;4938668;29;20071;-80
2022/05/11 18:05:54;;;;;;;7.20;4.85;;;;;;;;;;4938664;29;20024;-80
2022/05/11 18:08:21;;;;;;;6.00;4.65;;;;;;;;;;4938627;29;20439;-80
2022/05/11 18:10:47;;;;;;;6.00;5.15;;;;;;;;;;4938489;29;20024;-80
2022/05/11 18:13:13;;;;;;;7.63;5.25;;;;;;;;;;4937760;29;20027;-80
2022/05/11 18:15:40;;;;;;;8.40;5.15;;;;;;;;;;4938225;29;20466;-80
2022/05/11 18:18:08;;;;;;;5.22;4.57;;;;;;;;;;4938308;29;20115;-80
2022/05/11 18:20:39;;;;;;;7.85;5.45;;;;;;;;;;4938320;29;20127;-80
2022/05/11 18:23:05;;;;;;;8.50;4.85;;;;;;;;;;4938348;29;20083;-79
2022/05/11 18:25:33;;;;;;;7.22;4.82;;;;;;;;;;4938048;29;20027;-80
2022/05/11 18:28:00;;;;;;;5.97;4.60;;;;;;;;;;4936907;29;20063;-81
2022/05/11 18:30:25;;;;;;;5.22;4.72;;;;;;;;;;4937033;29;20031;-80
2022/05/11 18:32:51;;;;;;;7.28;5.18;;;;;;;;;;4938162;29;20039;-79
2022/05/11 18:35:19;;;;;;;6.82;5.05;;;;;;;;;;4938015;29;20031;-80
2022/05/11 18:37:48;;;;;;;5.63;4.82;;;;;;;;;;4938194;29;20024;-80
2022/05/11 18:40:14;;;;;;;6.68;4.72;;;;;;;;;;4937942;29;20052;-81
2022/05/11 18:42:40;;;;;;;7.85;4.82;;;;;;;;;;4937824;29;20036;-78
2022/05/11 18:45:07;;;;;;;6.43;5.00;;;;;;;;;;4937639;29;20035;-77
2022/05/11 18:47:32;;;;;;;7.50;4.80;;;;;;;;;;4937257;29;20087;-78
2022/05/11 18:49:58;;;;;;;5.70;4.63;;;;;;;;;;4937247;29;20028;-78
2022/05/11 18:52:23;;;;;;;6.25;4.50;;;;;;;;;;4937106;29;20137;-78
2022/05/11 18:54:48;;;;;;;6.07;4.75;;;;;;;;;;4937025;29;20062;-80
2022/05/11 18:57:14;;;;;;;6.15;4.35;;;;;;;;;;4938102;29;20028;-76
2022/05/11 18:59:39;;;;;;;12.82;4.97;;;;;;;;;;4937919;29;20031;-78
2022/05/11 19:02:07;;;;;;;6.10;4.72;;;;;;;;;;4937814;29;20534;-79
2022/05/11 19:04:33;;;;;;;4.90;4.40;;;;;;;;;;4937630;29;20364;-78
2022/05/11 19:06:58;;;;;;;6.25;5.00;;;;;;;;;;4937584;29;20470;-76
2022/05/11 19:09:26;;;;;;;6.38;4.68;;;;;;;;;;4937577;29;20031;-76
2022/05/11 19:11:52;;;;;;;8.05;5.00;;;;;;;;;;4937556;29;20056;-77
2022/05/11 19:14:17;;;;;;;6.97;4.63;;;;;;;;;;4937747;29;20153;-78
2022/05/11 19:16:43;;;;;;;5.43;4.50;;;;;;;;;;4937094;29;20031;-77
2022/05/11 19:19:09;;;;;;;5.05;4.53;;;;;;;;;;4936988;29;20023;-76
2022/05/11 19:21:36;;;;;;;6.55;4.88;;;;;;;;;;4937568;29;20024;-78
2022/05/11 19:24:02;;;;;;;8.02;5.05;;;;;;;;;;4937296;29;20067;-77
2022/05/11 19:26:27;;;;;;;6.75;4.50;;;;;;;;;;4936298;29;20076;-76
2022/05/11 19:28:53;;;;;;;5.63;4.60;;;;;;;;;;4936497;29;20027;-77
2022/05/11 19:31:18;;;;;;;5.10;4.60;;;;;;;;;;4937173;29;20458;-77
2022/05/11 19:33:44;;;;;;;9.48;5.03;;;;;;;;;;4937105;29;20032;-77
2022/05/11 19:36:12;;;;;;;5.65;4.20;;;;;;;;;;4936698;29;20039;-76
2022/05/11 19:38:41;;;;;;;7.23;4.80;;;;;;;;;;4936922;29;20076;-76
2022/05/11 19:41:06;;;;;;;9.60;4.87;;;;;;;;;;4936874;29;20458;-76
2022/05/11 19:43:32;;;;;;;7.32;4.30;;;;;;;;;;4936912;29;20035;-78
2022/05/11 19:45:58;;;;;;;9.07;4.95;;;;;;;;;;4936782;29;20454;-79
2022/05/11 19:48:24;;;;;;;5.78;4.43;;;;;;;;;;4936947;29;20107;-78
2022/05/11 19:50:51;;;;;;;8.10;4.68;;;;;;;;;;4936858;29;20118;-78
2022/05/11 19:53:16;;;;;;;5.65;4.82;;;;;;;;;;4936811;29;20038;-78
2022/05/11 19:55:42;;;;;;;6.85;4.88;;;;;;;;;;4936807;29;20023;-77
2022/05/11 19:58:14;;;;;;;7.20;4.53;;;;;;;;;;4937102;29;20111;-79
2022/05/11 20:00:41;;;;;;;5.82;4.85;;;;;;;;;;4936947;29;20500;-78
2022/05/11 20:03:08;;;;;;;7.97;5.80;;;;;;;;;;4936600;29;20028;-78
2022/05/11 20:05:34;;;;;;;7.85;4.70;;;;;;;;;;4936527;29;20040;-79
2022/05/11 20:08:01;;;;;;;7.00;4.72;;;;;;;;;;4909710;29;20065;-79
2022/05/11 20:10:32;;;;;;;8.23;5.45;;;;;;;;;;4920646;29;20032;-80
2022/05/11 20:13:02;;;;;;;5.63;4.68;;;;;;;;;;4935876;29;20020;-79
2022/05/11 20:15:28;;;;;;;7.85;4.63;;;;;;;;;;4931232;29;20028;-79
2022/05/11 20:17:54;;;;;;;6.45;4.50;;;;;;;;;;4916008;29;20076;-80
2022/05/11 20:20:19;;;;;;;5.45;4.00;;;;;;;;;;4917144;29;20024;-78
2022/05/11 20:22:45;;;;;;;5.30;4.20;;;;;;;;;;4917233;29;20036;-77
2022/05/11 20:25:11;;;;;;;7.03;4.78;;;;;;;;;;4931238;29;20034;-79
2022/05/11 20:27:38;;;;;;;5.28;4.72;;;;;;;;;;4936259;29;20028;-77
2022/05/11 20:30:08;;;;;;;5.47;4.07;;;;;;;;;;4936015;29;20546;-78
2022/05/11 20:35:17;;;;;;;5.82;4.00;;;;;;;;;;4936003;29;20091;-79
2022/05/11 20:37:44;;;;;;;6.20;4.38;;;;;;;;;;4938914;29;20118;-76
2022/05/11 20:40:14;;;;;;;6.72;4.60;;;;;;;;;;4922918;29;20052;-76
2022/05/11 20:42:39;;;;;;;5.63;4.40;;;;;;;;;;4925344;29;20126;-76
2022/05/11 20:45:07;;;;;;;5.80;4.70;;;;;;;;;;4940457;29;20163;-76
2022/05/11 20:47:33;;;;;;;5.88;4.57;;;;;;;;;;4939700;29;20032;-77
2022/05/11 20:49:58;;;;;;;6.53;4.80;;;;;;;;;;4938525;29;20402;-76
2022/05/11 20:52:24;;;;;;;5.18;4.65;;;;;;;;;;4939957;29;20028;-77
2022/05/11 20:54:49;;;;;;;4.78;4.28;;;;;;;;;;4939724;29;20087;-77
2022/05/11 20:57:16;;;;;;;4.63;4.10;;;;;;;;;;4939757;29;20076;-78
2022/05/11 20:59:43;;;;;;;6.05;4.28;;;;;;;;;;4939682;29;20020;-76
2022/05/11 21:02:08;;;;;;;5.10;4.70;;;;;;;;;;4939609;29;20064;-77
2022/05/11 21:04:34;;;;;;;7.28;4.82;;;;;;;;;;4939763;29;20031;-77
2022/05/11 21:06:59;;;;;;;5.55;5.00;;;;;;;;;;4939403;29;20117;-75
2022/05/11 21:09:25;;;;;;;7.15;4.60;;;;;;;;;;4939236;29;20122;-76
2022/05/11 21:11:52;;;;;;;5.28;4.22;;;;;;;;;;4939671;29;20034;-77
2022/05/11 21:14:17;;;;;;;5.18;4.65;;;;;;;;;;4939790;29;20020;-74
2022/05/11 21:16:43;;;;;;;6.68;4.82;;;;;;;;;;4939314;29;20066;-78
2022/05/11 21:19:09;;;;;;;4.45;4.05;;;;;;;;;;4922341;29;20029;-76
2022/05/11 21:21:34;;;;;;;5.50;4.68;;;;;;;;;;4939540;29;20028;-77
2022/05/11 21:23:59;;;;;;;5.68;4.32;;;;;;;;;;4939601;29;20024;-77
2022/05/11 21:26:27;;;;;;;6.03;4.45;;;;;;;;;;4939403;29;20032;-76
2022/05/11 21:28:53;;;;;;;5.40;4.90;;;;;;;;;;4939393;29;20034;-76
2022/05/11 21:31:18;;;;;;;6.32;4.82;;;;;;;;;;4939097;29;20032;-76
2022/05/11 21:33:44;;;;;;;8.50;4.97;;;;;;;;;;4939151;29;20378;-76
2022/05/11 21:36:10;;;;;;;4.97;4.47;;;;;;;;;;4939261;29;20039;-77
2022/05/11 21:38:35;;;;;;;8.50;4.80;;;;;;;;;;4939045;29;20039;-76
2022/05/11 21:41:02;;;;;;;5.72;5.05;;;;;;;;;;4939304;29;20415;-76
2022/05/11 21:43:27;;;;;;;5.90;4.75;;;;;;;;;;4939027;29;20046;-76
2022/05/11 21:45:54;;;;;;;6.05;5.13;;;;;;;;;;4938853;29;20463;-76
2022/05/11 21:48:20;;;;;;;6.90;5.20;;;;;;;;;;4938103;29;20027;-75
2022/05/11 21:50:48;;;;;;;6.28;4.97;;;;;;;;;;4938975;29;20039;-75
2022/05/11 21:53:15;;;;;;;6.28;4.70;;;;;;;;;;4938371;29;20066;-75
2022/05/11 21:55:41;;;;;;;7.78;4.68;;;;;;;;;;4938684;29;20028;-75
2022/05/11 21:58:08;;;;;;;6.25;4.70;;;;;;;;;;4939034;29;20043;-76
2022/05/11 22:00:37;;;;;;;8.18;4.90;;;;;;;;;;4938578;29;20051;-75
2022/05/11 22:03:04;;;;;;;5.70;4.93;;;;;;;;;;4938692;29;20058;-76
2022/05/11 22:05:30;;;;;;;4.95;4.47;;;;;;;;;;4938861;29;20036;-75
2022/05/11 22:07:56;;;;;;;7.40;4.65;;;;;;;;;;4938744;29;20129;-75
2022/05/11 22:10:22;;;;;;;6.20;4.70;;;;;;;;;;4938488;29;20093;-75
2022/05/11 22:12:48;;;;;;;5.78;4.43;;;;;;;;;;4938744;29;20019;-75
2022/05/11 22:15:15;;;;;;;5.05;4.47;;;;;;;;;;4938205;29;20031;-76
2022/05/11 22:17:41;;;;;;;4.70;4.22;;;;;;;;;;4938530;29;20450;-76
2022/05/11 22:20:07;;;;;;;6.22;4.55;;;;;;;;;;4938276;29;20040;-75
2022/05/11 22:22:33;;;;;;;6.80;4.63;;;;;;;;;;4938214;29;20502;-75
2022/05/11 22:25:14;;;;;;;7.13;5.00;;;;;;;;;;4938299;29;20220;-75
2022/05/11 22:27:44;;;;;;;8.30;4.75;;;;;;;;;;4938299;29;20118;-75
2022/05/11 22:30:12;;;;;;;5.93;5.00;;;;;;;;;;4938391;29;20024;-76
2022/05/11 22:32:56;;;;;;;7.60;4.65;;;;;;;;;;4938306;29;20024;-77
2022/05/11 22:35:23;;;;;;;4.90;4.47;;;;;;;;;;4937225;29;20356;-78
2022/05/11 22:37:48;;;;;;;6.45;4.85;;;;;;;;;;4937714;29;20039;-76
